MPZL weather

Finca 32 Airport
La Dalia, Bocas del Toro Province, Panama

Public forecast

Using degrees Celsius for public forecast. Weather courtesy of forecast.io.

Closest aviation weather report (METAR) to Finca 32 Airport

Report is more than 6 hours old.

Closest report is Cap Manuel NiƱo International Airport, 3.4 nm (6.3 km) NE. Retrieved 2019/08/28 01:00 UTC (2 months ago):

MPCH 280100Z 00000KT 9999 FEW030 SCT080 Q1012 RMK HZ S-SW

Closest aviation forecast (TAF) to Finca 32 Airport

Forecast is more than 12 hours old.

Closest forecast is Bocas Del Toro International Airport, 19.2 nm (35.5 km) ESE. Retrieved 2011/07/19 06:30 UTC (8 years ago):

TAF TAF MPBO 190500Z 1906/1918 00000KT 9999 FEW020 BECMG 1912/1916 30004KT 9000 SCT018 BKN100 TEMPO 1916/1918 FEW018CB